Terminal Aerodrome Forecast
Issued by NWS St Louis, MO

Home | Current Version | Previous Version | Text Only | Print | Product List | Glossary On
Versions: 1 2 3 4 5 6 7 8 9 10 11 12 13 14 15 16 17 18
000
FTUS43 KLSX 020500 AAA
TAFCOU
TAF AMD
KCOU 020537Z 0206/0306 12006KT 3SM TSRA SCT005 OVC030CB
      TEMPO 0206/0207 VRB25KT 1SM TSRA BR OVC005CB
     FM020700 12007KT P6SM -SHRA VCTS BKN035CB
     FM021200 16006KT P6SM SCT010 BKN035
     FM021900 18010KT 5SM -SHRA VCTS BKN040CB
     FM030000 24007KT 5SM -SHRA VCTS BKN040CB=

USA.gov is the U.S. government's official web portal to all federal, state and local government web resources and services.